createdAt,value
2017-06-22T00:01:01.333Z,2.08
2017-06-22T00:03:35.805Z,2.60
2017-06-22T00:06:10.261Z,2.95
2017-06-22T00:08:45.572Z,2.65
2017-06-22T00:11:19.965Z,3.67
2017-06-22T00:13:54.452Z,2.42
2017-06-22T00:16:28.879Z,2.65
2017-06-22T00:19:03.322Z,2.87
2017-06-22T00:21:37.833Z,2.40
2017-06-22T00:24:12.255Z,2.40
2017-06-22T00:26:47.428Z,2.35
2017-06-22T00:29:21.917Z,2.60
2017-06-22T00:31:57.192Z,2.50
2017-06-22T00:34:31.751Z,1.95
2017-06-22T00:37:06.233Z,1.90
2017-06-22T00:39:40.672Z,2.33
2017-06-22T00:42:15.710Z,2.50
2017-06-22T00:44:50.136Z,2.40
2017-06-22T00:47:24.656Z,2.10
2017-06-22T00:49:59.250Z,2.50
2017-06-22T00:52:34.481Z,2.35
2017-06-22T00:55:08.901Z,2.40
2017-06-22T00:57:43.677Z,2.70
2017-06-22T01:00:18.089Z,2.60
2017-06-22T01:02:52.513Z,2.40
2017-06-22T01:05:27.742Z,2.10
2017-06-22T01:08:02.177Z,3.17
2017-06-22T01:10:36.729Z,2.87
2017-06-22T01:13:11.337Z,2.22
2017-06-22T01:15:45.869Z,2.30
2017-06-22T01:18:20.344Z,2.62
2017-06-22T01:20:54.780Z,3.05
2017-06-22T01:23:29.241Z,2.58
2017-06-22T01:26:03.604Z,2.45
2017-06-22T01:28:38.128Z,2.60
2017-06-22T01:31:12.563Z,3.20
2017-06-22T01:33:47.856Z,3.20
2017-06-22T01:36:22.520Z,2.85
2017-06-22T01:38:57.017Z,2.67
2017-06-22T01:41:31.388Z,3.30
2017-06-22T01:44:05.858Z,3.28
2017-06-22T01:46:40.266Z,3.65
2017-06-22T01:49:14.588Z,3.80
2017-06-22T01:51:49.130Z,3.15
2017-06-22T01:54:23.551Z,3.47
2017-06-22T01:56:57.964Z,3.60
2017-06-22T01:59:32.393Z,3.22
2017-06-22T02:02:06.817Z,3.20
2017-06-22T02:04:41.312Z,3.08
2017-06-22T02:07:15.733Z,3.45
2017-06-22T02:09:50.269Z,3.95
2017-06-22T02:12:24.767Z,3.75
2017-06-22T02:14:59.225Z,4.00
2017-06-22T02:17:33.728Z,3.30
2017-06-22T02:20:08.116Z,3.80
2017-06-22T02:22:42.756Z,3.53
2017-06-22T02:25:17.998Z,3.75
2017-06-22T02:27:52.432Z,3.60
2017-06-22T02:30:26.933Z,3.58
2017-06-22T02:33:01.488Z,5.65
2017-06-22T02:35:35.906Z,3.40
2017-06-22T02:38:10.331Z,3.45
2017-06-22T02:40:44.877Z,3.55
2017-06-22T02:43:19.344Z,4.35
2017-06-22T02:45:53.761Z,3.28
2017-06-22T02:48:28.177Z,3.15
2017-06-22T02:51:02.637Z,3.95
2017-06-22T02:53:37.141Z,3.58
2017-06-22T02:56:11.576Z,3.62
2017-06-22T02:58:46.868Z,4.93
2017-06-22T03:01:21.344Z,5.10
2017-06-22T03:03:55.825Z,4.90
2017-06-22T03:06:30.997Z,4.62
2017-06-22T03:09:05.389Z,5.18
2017-06-22T03:11:39.806Z,5.00
2017-06-22T03:14:14.317Z,3.70
2017-06-22T03:16:48.737Z,4.62
2017-06-22T03:19:23.161Z,4.18
2017-06-22T03:21:57.619Z,3.95
2017-06-22T03:24:32.140Z,3.55
2017-06-22T03:27:06.696Z,3.95
2017-06-22T03:29:41.253Z,3.80
2017-06-22T03:32:15.837Z,3.60
2017-06-22T03:34:50.204Z,3.90
2017-06-22T03:37:25.445Z,3.65
2017-06-22T03:39:59.809Z,4.55
2017-06-22T03:42:34.225Z,4.95
2017-06-22T03:45:08.696Z,4.25
2017-06-22T03:47:44.069Z,3.65
2017-06-22T03:50:18.432Z,4.55
2017-06-22T03:52:53.613Z,3.55
2017-06-22T03:55:27.996Z,4.68
2017-06-22T03:58:02.380Z,4.05
2017-06-22T04:00:36.871Z,4.35
2017-06-22T04:03:12.160Z,4.60
2017-06-22T04:05:46.933Z,4.22
2017-06-22T04:08:21.305Z,5.12
2017-06-22T04:10:55.735Z,4.28
2017-06-22T04:13:30.237Z,4.50
2017-06-22T04:16:04.640Z,4.65
2017-06-22T04:18:39.124Z,4.55
2017-06-22T04:21:13.550Z,3.55
2017-06-22T04:23:48.854Z,3.90
2017-06-22T04:26:24.007Z,4.37
2017-06-22T04:28:58.444Z,4.07
2017-06-22T04:31:33.599Z,3.83
2017-06-22T04:34:08.077Z,3.72
2017-06-22T04:36:42.665Z,4.45
2017-06-22T04:39:17.242Z,4.68
2017-06-22T04:41:51.658Z,4.22
2017-06-22T04:44:26.165Z,3.72
2017-06-22T04:47:00.580Z,4.10
2017-06-22T04:49:35.128Z,3.80
2017-06-22T04:52:09.509Z,4.03
2017-06-22T04:54:44.074Z,4.15
2017-06-22T04:57:18.548Z,4.10
2017-06-22T04:59:53.668Z,3.90
2017-06-22T05:02:28.161Z,4.28
2017-06-22T05:05:02.668Z,3.58
2017-06-22T05:07:37.213Z,3.45
2017-06-22T05:10:11.693Z,3.58
2017-06-22T05:12:46.020Z,4.15
2017-06-22T05:15:20.580Z,3.47
2017-06-22T05:17:55.857Z,3.50
2017-06-22T05:20:30.512Z,3.15
2017-06-22T05:23:05.029Z,3.10
2017-06-22T05:25:40.180Z,3.28
2017-06-22T05:28:14.664Z,3.67
2017-06-22T05:30:50.141Z,3.65
2017-06-22T05:33:25.468Z,3.67
2017-06-22T05:36:00.917Z,4.18
2017-06-22T05:38:35.329Z,3.08
2017-06-22T05:41:09.761Z,3.62
2017-06-22T05:43:44.260Z,4.22
2017-06-22T05:46:18.905Z,3.47
2017-06-22T05:48:53.269Z,3.17
2017-06-22T05:51:27.632Z,3.00
2017-06-22T05:54:02.207Z,2.70
2017-06-22T05:56:37.022Z,3.20
2017-06-22T05:59:11.417Z,3.20
2017-06-22T06:01:45.920Z,4.70
2017-06-22T06:04:20.465Z,3.30
2017-06-22T06:06:54.841Z,3.67
2017-06-22T06:09:29.988Z,3.80
2017-06-22T06:12:04.490Z,4.75
2017-06-22T06:14:38.945Z,3.65
2017-06-22T06:17:14.245Z,4.30
2017-06-22T06:19:48.816Z,3.85
2017-06-22T06:22:23.364Z,4.07
2017-06-22T06:24:57.808Z,3.67
2017-06-22T06:27:32.168Z,4.35
2017-06-22T06:30:06.690Z,5.00
2017-06-22T06:32:41.119Z,5.72
2017-06-22T06:35:15.701Z,5.55
2017-06-22T06:37:51.084Z,5.40
2017-06-22T06:40:25.529Z,7.45
2017-06-22T06:42:59.997Z,7.15
2017-06-22T06:45:34.520Z,7.55
2017-06-22T06:48:08.940Z,7.50
2017-06-22T06:50:43.344Z,7.80
2017-06-22T06:53:17.888Z,6.22
2017-06-22T06:55:52.304Z,5.70
2017-06-22T06:58:26.833Z,5.75
2017-06-22T07:01:01.340Z,5.25
2017-06-22T07:03:36.489Z,4.85
2017-06-22T07:06:11.007Z,5.62
2017-06-22T07:08:45.437Z,4.53
2017-06-22T07:11:19.824Z,3.80
2017-06-22T07:13:54.181Z,4.25
2017-06-22T07:16:28.758Z,4.22
2017-06-22T07:19:03.313Z,3.50
2017-06-22T07:21:38.461Z,3.72
2017-06-22T07:24:12.830Z,3.62
2017-06-22T07:26:47.425Z,3.60
2017-06-22T07:29:21.900Z,3.85
2017-06-22T07:31:56.546Z,4.35
2017-06-22T07:34:30.897Z,3.60
2017-06-22T07:37:05.261Z,3.40
2017-06-22T07:39:39.831Z,3.50
2017-06-22T07:42:14.348Z,3.83
2017-06-22T07:44:48.832Z,3.37
2017-06-22T07:47:23.265Z,3.35
2017-06-22T07:49:58.368Z,4.10
2017-06-22T07:52:32.928Z,4.82
2017-06-22T07:55:07.325Z,4.18
2017-06-22T07:57:41.970Z,3.60
2017-06-22T08:00:16.490Z,4.45
2017-06-22T08:02:51.213Z,4.10
2017-06-22T08:05:25.599Z,5.18
2017-06-22T08:08:00.772Z,5.05
2017-06-22T08:10:36.073Z,5.85
2017-06-22T08:13:10.541Z,6.40
2017-06-22T08:15:44.980Z,5.37
2017-06-22T08:18:20.353Z,25.27
2017-06-22T08:20:55.736Z,10.80
2017-06-22T08:23:30.213Z,8.25
2017-06-22T08:26:05.518Z,5.95
2017-06-22T08:28:39.896Z,4.80
2017-06-22T08:31:14.429Z,5.37
2017-06-22T08:33:48.781Z,6.57
2017-06-22T08:36:23.194Z,6.20
2017-06-22T08:38:57.673Z,7.82
2017-06-22T08:41:32.043Z,7.78
2017-06-22T12:15:50.229Z,3.57
2017-06-22T12:18:24.571Z,3.43
2017-06-22T12:20:58.964Z,3.20
2017-06-22T12:23:33.513Z,3.83
2017-06-22T12:26:07.893Z,3.10
2017-06-22T12:28:42.389Z,4.33
2017-06-22T12:31:16.968Z,4.00
2017-06-22T12:33:51.405Z,4.80
2017-06-22T12:36:25.833Z,4.07
2017-06-22T12:39:00.287Z,4.53
2017-06-22T12:41:34.672Z,4.70
2017-06-22T12:44:09.050Z,4.70
2017-06-22T12:46:43.537Z,4.30
2017-06-22T12:49:17.836Z,5.17
2017-06-22T12:51:52.413Z,5.00
2017-06-22T12:54:27.009Z,4.70
2017-06-22T12:57:01.363Z,4.83
2017-06-22T12:59:35.918Z,4.60
2017-06-22T13:02:10.457Z,4.17
2017-06-22T13:04:45.106Z,4.57
2017-06-22T13:07:19.573Z,3.63
2017-06-22T13:09:54.004Z,4.03
2017-06-22T13:12:28.536Z,4.00
2017-06-22T13:15:02.973Z,3.43
2017-06-22T13:17:37.468Z,4.07
2017-06-22T13:20:12.069Z,4.77
2017-06-22T13:22:46.601Z,4.20
2017-06-22T13:25:21.053Z,4.07
2017-06-22T13:27:55.453Z,4.20
2017-06-22T13:30:29.948Z,4.27
2017-06-22T13:33:04.708Z,4.23
2017-06-22T13:35:39.114Z,4.90
2017-06-22T13:38:13.665Z,4.97
2017-06-22T13:40:48.175Z,4.90
2017-06-22T13:43:22.773Z,5.57
2017-06-22T13:45:57.184Z,5.37
2017-06-22T13:48:31.613Z,4.80
2017-06-22T13:51:06.199Z,4.43
2017-06-22T13:53:41.368Z,5.30
2017-06-22T13:56:16.561Z,4.90
2017-06-22T13:58:51.044Z,5.13
2017-06-22T14:01:25.372Z,5.17
2017-06-22T14:03:59.933Z,5.17
2017-06-22T14:06:34.303Z,4.90
2017-06-22T14:09:08.825Z,5.50
2017-06-22T14:11:43.360Z,5.60
2017-06-22T14:14:17.816Z,5.50
2017-06-22T14:16:52.190Z,4.90
2017-06-22T14:19:26.705Z,6.20
2017-06-22T14:22:01.881Z,6.57
2017-06-22T14:24:36.247Z,6.90
2017-06-22T14:27:10.600Z,5.73
2017-06-22T14:29:45.142Z,5.87
2017-06-22T14:32:19.744Z,5.60
2017-06-22T14:34:54.164Z,6.33
2017-06-22T14:37:28.501Z,6.50
2017-06-22T14:40:03.050Z,6.03
2017-06-22T14:42:37.869Z,7.00
2017-06-22T14:45:12.657Z,6.93
2017-06-22T14:47:47.305Z,5.77
2017-06-22T14:50:21.817Z,6.77
2017-06-22T14:52:56.315Z,7.30
2017-06-22T14:55:30.869Z,7.10
2017-06-22T14:58:05.369Z,7.20
2017-06-22T15:00:39.703Z,7.90
2017-06-22T15:03:14.245Z,7.17
2017-06-22T15:05:48.722Z,6.50
2017-06-22T15:08:23.884Z,8.30
2017-06-22T15:10:59.282Z,7.97
2017-06-22T15:13:34.041Z,7.33
2017-06-22T15:19:13.037Z,7.30
2017-06-22T15:21:47.497Z,7.70
2017-06-22T15:24:22.044Z,7.63
2017-06-22T15:26:57.329Z,8.80
2017-06-22T15:29:31.886Z,8.63
2017-06-22T15:32:06.273Z,7.83
2017-06-22T15:34:41.481Z,7.87
2017-06-22T15:40:32.418Z,7.60
2017-06-22T15:46:10.412Z,7.93
2017-06-22T15:48:44.849Z,8.03
2017-06-22T15:51:19.437Z,8.20
2017-06-22T15:53:53.754Z,8.90
2017-06-22T15:56:28.160Z,7.63
2017-06-22T15:59:02.697Z,8.50
2017-06-22T16:01:37.000Z,8.90
2017-06-22T16:04:11.393Z,7.83
2017-06-22T16:06:45.738Z,8.23
2017-06-22T16:09:21.045Z,9.43
2017-06-22T16:11:55.393Z,9.27
2017-06-22T16:14:29.942Z,9.17
2017-06-22T16:17:04.454Z,9.17
2017-06-22T16:19:39.749Z,10.30
2017-06-22T16:22:15.176Z,10.70
2017-06-22T16:24:49.514Z,11.90
2017-06-22T16:27:24.042Z,12.40
2017-06-22T16:29:58.520Z,11.60
2017-06-22T16:32:33.047Z,12.17
2017-06-22T16:35:07.505Z,13.70
2017-06-22T16:37:42.089Z,13.20
2017-06-22T16:40:16.712Z,12.47
2017-06-22T16:42:51.945Z,15.27
2017-06-22T16:45:26.537Z,11.80
2017-06-22T16:48:01.105Z,12.27
2017-06-22T16:50:35.501Z,14.10
2017-06-22T16:53:09.929Z,14.00
2017-06-22T16:55:44.422Z,14.77
2017-06-22T16:58:19.421Z,14.10
2017-06-22T17:00:53.810Z,14.37
2017-06-22T17:03:28.405Z,14.60
2017-06-22T17:06:02.895Z,14.17
2017-06-22T17:08:37.310Z,13.53
2017-06-22T17:11:11.852Z,17.77
2017-06-22T17:13:46.296Z,15.20
2017-06-22T17:16:20.834Z,16.77
2017-06-22T17:18:55.329Z,21.37
2017-06-22T17:21:29.849Z,21.83
2017-06-22T17:24:05.009Z,21.27
2017-06-22T17:26:39.614Z,21.60
2017-06-22T17:29:14.874Z,23.50
2017-06-22T17:31:49.366Z,24.53
2017-06-22T17:34:23.793Z,25.40
2017-06-22T17:36:58.309Z,25.07
2017-06-22T17:39:32.775Z,22.93
2017-06-22T17:42:07.208Z,23.07
2017-06-22T17:44:42.361Z,23.60
2017-06-22T17:47:17.683Z,25.10
2017-06-22T17:49:52.074Z,24.63
2017-06-22T17:52:27.478Z,25.93
2017-06-22T17:55:02.214Z,26.63
2017-06-22T17:57:36.577Z,28.50
2017-06-22T18:00:10.975Z,28.93
2017-06-22T18:02:45.436Z,29.33
2017-06-22T18:05:19.925Z,26.20
2017-06-22T18:07:54.318Z,30.27
2017-06-22T18:10:28.745Z,30.83
2017-06-22T18:13:03.389Z,31.20
2017-06-22T18:15:38.021Z,33.50
2017-06-22T18:18:12.553Z,30.93
2017-06-22T18:20:47.010Z,30.70
2017-06-22T18:23:21.686Z,34.77
2017-06-22T18:25:56.225Z,33.67
2017-06-22T18:28:30.628Z,34.47
2017-06-22T18:31:05.175Z,34.47
2017-06-22T18:33:39.559Z,34.13
2017-06-22T18:36:14.090Z,32.20
2017-06-22T18:38:48.481Z,30.30
2017-06-22T18:41:22.864Z,25.40
2017-06-22T18:43:57.297Z,26.70
2017-06-22T18:46:31.710Z,28.73
2017-06-22T18:49:06.282Z,23.63
2017-06-22T18:51:40.717Z,21.35
2017-06-22T18:54:15.219Z,23.48
2017-06-22T18:56:50.515Z,21.45
2017-06-22T18:59:25.921Z,19.08
2017-06-22T19:02:00.484Z,17.70
2017-06-22T19:04:35.633Z,20.30
2017-06-22T19:07:10.950Z,20.20
2017-06-22T19:09:45.522Z,18.15
2017-06-22T19:12:20.046Z,16.42
2017-06-22T19:14:54.677Z,15.80
2017-06-22T19:17:29.129Z,12.45
2017-06-22T19:20:03.587Z,12.97
2017-06-22T19:22:37.966Z,13.30
2017-06-22T19:25:12.545Z,12.15
2017-06-22T19:27:46.927Z,11.50
2017-06-22T19:30:22.189Z,11.80
2017-06-22T19:32:56.657Z,11.70
2017-06-22T19:35:31.103Z,11.20
2017-06-22T19:38:05.590Z,11.20
2017-06-22T19:40:40.173Z,10.80
2017-06-22T19:43:14.652Z,11.55
2017-06-22T19:45:49.055Z,11.05
2017-06-22T19:48:23.634Z,10.15
2017-06-22T19:50:58.037Z,8.90
2017-06-22T19:53:32.454Z,8.00
2017-06-22T19:56:06.853Z,9.10
2017-06-22T19:58:41.222Z,7.40
2017-06-22T20:01:15.739Z,8.10
2017-06-22T20:03:50.537Z,8.05
2017-06-22T20:06:25.122Z,8.05
2017-06-22T20:08:59.500Z,7.65
2017-06-22T20:11:33.845Z,9.85
2017-06-22T20:14:09.029Z,10.27
2017-06-22T20:16:43.571Z,10.18
2017-06-22T20:19:18.127Z,10.57
2017-06-22T20:21:52.606Z,9.70
2017-06-22T20:24:27.016Z,10.55
2017-06-22T20:27:01.407Z,10.05
2017-06-22T20:29:36.669Z,11.73
2017-06-22T20:32:11.242Z,11.45
2017-06-22T20:34:46.536Z,11.60
2017-06-22T20:37:21.081Z,10.65
2017-06-22T20:39:56.279Z,11.38
2017-06-22T20:42:31.130Z,11.35
2017-06-22T20:45:05.649Z,11.32
2017-06-22T20:47:40.169Z,11.30
2017-06-22T20:50:14.684Z,11.00
2017-06-22T20:52:49.065Z,11.68
2017-06-22T20:55:23.501Z,11.02
2017-06-22T20:57:58.070Z,11.88
2017-06-22T21:00:32.457Z,11.07
2017-06-22T21:03:07.278Z,13.00
2017-06-22T21:05:41.837Z,12.27
2017-06-22T21:08:17.398Z,12.65
2017-06-22T21:10:51.931Z,12.60
2017-06-22T21:13:26.365Z,12.73
2017-06-22T21:16:00.810Z,12.05
2017-06-22T21:18:36.072Z,13.57
2017-06-22T21:21:11.293Z,13.38
2017-06-22T21:23:45.757Z,13.88
2017-06-22T21:26:21.034Z,14.23
2017-06-22T21:28:55.411Z,14.07
2017-06-22T21:31:29.901Z,13.60
2017-06-22T21:34:04.369Z,12.40
2017-06-22T21:36:38.811Z,12.85
2017-06-22T21:39:13.421Z,13.68
2017-06-22T21:41:47.791Z,12.10
2017-06-22T21:44:23.017Z,12.70
2017-06-22T21:46:57.570Z,14.32
2017-06-22T21:49:32.149Z,14.52
2017-06-22T21:52:06.550Z,13.40
2017-06-22T21:54:41.231Z,15.00
2017-06-22T21:57:16.518Z,15.88
2017-06-22T21:59:50.970Z,15.88
2017-06-22T22:02:25.359Z,17.05
2017-06-22T22:05:00.798Z,16.87
2017-06-22T22:07:35.241Z,15.68
2017-06-22T22:10:09.693Z,16.90
2017-06-22T22:12:44.087Z,18.42
2017-06-22T22:15:18.475Z,20.55
2017-06-22T22:17:52.954Z,18.87
2017-06-22T22:20:27.365Z,20.40
2017-06-22T22:23:01.895Z,20.90
2017-06-22T22:25:37.529Z,22.92
2017-06-22T22:28:11.909Z,22.15
2017-06-22T22:30:46.299Z,23.35
2017-06-22T22:33:20.655Z,24.67
2017-06-22T22:35:55.323Z,24.48
2017-06-22T22:38:29.715Z,24.80
2017-06-22T22:41:04.269Z,26.10
2017-06-22T22:43:38.864Z,28.05
2017-06-22T22:46:13.402Z,29.37
2017-06-22T22:48:48.704Z,30.50
2017-06-22T22:51:23.353Z,30.83
2017-06-22T22:53:57.877Z,29.73
2017-06-22T22:56:32.409Z,32.67
2017-06-22T22:59:07.697Z,39.33
2017-06-22T23:01:42.293Z,39.75
2017-06-22T23:04:16.789Z,37.30
2017-06-22T23:06:51.452Z,44.03
2017-06-22T23:09:25.873Z,43.20
2017-06-22T23:12:00.431Z,44.03
2017-06-22T23:14:35.545Z,41.22
2017-06-22T23:17:10.037Z,43.95
2017-06-22T23:19:45.309Z,45.53
2017-06-22T23:22:19.750Z,47.30
2017-06-22T23:24:54.161Z,47.58
2017-06-22T23:27:28.707Z,44.88
2017-06-22T23:30:03.089Z,40.17
2017-06-22T23:32:37.574Z,30.60
2017-06-22T23:35:11.938Z,46.20
2017-06-22T23:37:46.445Z,44.78
2017-06-22T23:40:20.834Z,43.13
2017-06-22T23:42:55.424Z,44.05
2017-06-22T23:45:29.814Z,41.10
2017-06-22T23:48:04.256Z,40.58
2017-06-22T23:50:38.649Z,36.20
2017-06-22T23:53:13.409Z,34.78
2017-06-22T23:55:47.836Z,38.28
2017-06-22T23:58:22.325Z,37.53
